| time (UTC) | temp F | wind direction | speed knots | gust knots | rain 1hr in | rain 24hr in | rain mn in | humidity % | barometer mb |
| 20260506140024 | 61 | 150 | 0.9 | 5.2 | 0.13 | 0.17 | 0.17 | 92 | 1010.4 |
| 20260506135045 | 61 | 137 | 0.9 | 3.5 | 0.13 | 0.16 | 0.16 | 92 | 1010.2 |
| 20260506134003 | 61 | 140 | 0.9 | 4.3 | 0.12 | 0.15 | 0.15 | 91 | 1010.3 |
| 20260506133003 | 61 | 155 | 1.7 | 5.2 | 0.10 | 0.12 | 0.12 | 90 | 1010.5 |
| 20260506132024 | 62 | 161 | 0.9 | 4.3 | 0.08 | 0.10 | 0.10 | 90 | 1010.7 |
| 20260506131024 | 62 | 160 | 0.9 | 4.3 | 0.05 | 0.07 | 0.07 | 89 | 1010.9 |
| 20260506130003 | 62 | 169 | 0.9 | 3.5 | 0.03 | 0.04 | 0.04 | 89 | 1010.9 |
| 20260506125003 | 62 | 164 | 0.9 | 4.3 | 0.03 | 0.03 | 0.03 | 88 | 1010.8 |
| 20260506124003 | 62 | 149 | 0.9 | 4.3 | 0.03 | 0.03 | 0.03 | 87 | 1010.3 |
| 20260506123106 | 63 | 144 | 0.0 | 1.7 | 0.02 | 0.02 | 0.02 | 86 | 1010.0 |
| 20260506122024 | 63 | 158 | 0.0 | 1.7 | 0.02 | 0.02 | 0.02 | 85 | 1009.9 |
| 20260506121025 | 63 | 164 | 0.9 | 3.5 | 0.02 | 0.02 | 0.02 | 84 | 1010.2 |
| 20260506120003 | 64 | 156 | 0.9 | 4.3 | 0.01 | 0.01 | 0.01 | 82 | 1010.4 |
| 20260506115024 | 64 | 167 | 0.9 | 4.3 | 0.00 | 0.00 | 0.00 | 80 | 1010.8 |
| 20260506114024 | 64 | 172 | 0.9 | 4.3 | 0.00 | 0.00 | 0.00 | 79 | 1010.5 |
| 20260506113024 | 65 | 159 | 1.7 | 11.3 | 0.00 | 0.00 | 0.00 | 78 | 1010.4 |
| 20260506112024 | 65 | 156 | 1.7 | 9.6 | 0.00 | 0.00 | 0.00 | 77 | 1010.2 |
| 20260506111021 | 65 | 154 | 2.6 | 7.8 | 0.00 | 0.00 | 0.00 | 76 | 1010.1 |
| 20260506110021 | 65 | 151 | 1.7 | 6.1 | 0.00 | 0.00 | 0.00 | 76 | 1009.8 |
| 20260506105000 | 65 | 162 | 1.7 | 8.7 | 0.00 | 0.00 | 0.00 | 76 | 1009.9 |
| 20260506104021 | 65 | 167 | 1.7 | 7.0 | 0.00 | 0.00 | 0.00 | 75 | 1009.7 |
| 20260506103043 | 66 | 158 | 1.7 | 7.0 | 0.00 | 0.00 | 0.00 | 75 | 1009.6 |
| 20260506102001 | 66 | 155 | 1.7 | 8.7 | 0.00 | 0.00 | 0.00 | 73 | 1009.6 |
| 20260506101021 | 66 | 155 | 1.7 | 6.1 | 0.00 | 0.00 | 0.00 | 73 | 1009.6 |
| 20260506100043 | 66 | 160 | 1.7 | 7.8 | 0.00 | 0.00 | 0.00 | 72 | 1009.6 |
| 20260506095043 | 66 | 152 | 1.7 | 7.8 | 0.00 | 0.00 | 0.00 | 72 | 1009.4 |
| 20260506094001 | 66 | 170 | 1.7 | 7.0 | 0.00 | 0.00 | 0.00 | 71 | 1009.7 |
| 20260506093002 | 66 | 152 | 1.7 | 8.7 | 0.00 | 0.00 | 0.00 | 71 | 1009.7 |
| 20260506092001 | 66 | 160 | 1.7 | 7.8 | 0.00 | 0.00 | 0.00 | 71 | 1009.6 |
| 20260506091000 | 66 | 157 | 2.6 | 9.6 | 0.00 | 0.00 | 0.00 | 70 | 1009.7 |
| 20260506090001 | 67 | 161 | 2.6 | 8.7 | 0.00 | 0.00 | 0.00 | 70 | 1009.8 |
| 20260506085104 | 67 | 159 | 1.7 | 8.7 | 0.00 | 0.00 | 0.00 | 69 | 1009.8 |
| 20260506084001 | 67 | 155 | 1.7 | 7.8 | 0.00 | 0.00 | 0.00 | 69 | 1009.9 |
| 20260506083001 | 67 | 147 | 2.6 | 8.7 | 0.00 | 0.00 | 0.00 | 68 | 1010.0 |
| 20260506082001 | 68 | 160 | 1.7 | 7.0 | 0.00 | 0.00 | 0.00 | 67 | 1010.0 |
| 20260506081001 | 68 | 172 | 1.7 | 6.1 | 0.00 | 0.00 | 0.00 | 67 | 1010.0 |
| 20260506073001 | 68 | 155 | 1.7 | 7.0 | 0.00 | 0.00 | 0.00 | 65 | 1009.9 |
| 20260506072104 | 68 | 167 | 1.7 | 7.8 | 0.00 | 0.00 | 0.00 | 65 | 1009.8 |
| 20260506071022 | 69 | 158 | 1.7 | 7.0 | 0.00 | 0.00 | 0.00 | 65 | 1010.0 |
| 20260506062022 | 70 | 150 | 1.7 | 6.1 | 0.00 | 0.00 | 0.00 | 62 | 1010.5 |
| 20260506061043 | 70 | 158 | 1.7 | 7.0 | 0.00 | 0.00 | 0.00 | 61 | 1010.5 |
| 20260506051002 | 71 | 160 | 1.7 | 7.0 | 0.00 | 0.00 | 0.00 | 58 | 1010.8 |
| 20260506045001 | 72 | 160 | 2.6 | 7.8 | 0.00 | 0.00 | 0.00 | 57 | 1010.9 |
| 20260506044043 | 72 | 148 | 1.7 | 9.6 | 0.00 | 0.00 | 0.00 | 57 | 1010.9 |
| 20260506043001 | 72 | 154 | 2.6 | 7.8 | 0.00 | 0.00 | 0.00 | 56 | 1010.7 |
| 20260506042001 | 72 | 155 | 2.6 | 9.6 | 0.00 | 0.00 | 0.00 | 56 | 1010.7 |
| 20260506041022 | 72 | 159 | 1.7 | 7.0 | 0.00 | 0.00 | 0.00 | 56 | 1010.6 |
| 20260506040022 | 72 | 150 | 1.7 | 7.8 | 0.00 | 0.00 | 0.00 | 56 | 1010.6 |
| 20260506035022 | 72 | 157 | 1.7 | 6.1 | 0.00 | 0.00 | 0.00 | 55 | 1010.7 |
| 20260506034002 | 72 | 143 | 1.7 | 7.8 | 0.00 | 0.00 | 0.00 | 55 | 1010.7 |
| 20260506033022 | 72 | 139 | 1.7 | 7.8 | 0.00 | 0.00 | 0.00 | 54 | 1010.7 |
| 20260506032001 | 72 | 145 | 0.9 | 6.1 | 0.00 | 0.00 | 0.00 | 54 | 1010.8 |
| 20260506031001 | 72 | 140 | 1.7 | 7.8 | 0.00 | 0.00 | 0.00 | 53 | 1010.8 |
| 20260506030022 | 72 | 158 | 1.7 | 7.8 | 0.00 | 0.00 | 0.00 | 53 | 1010.8 |
| 20260506025001 | 72 | 150 | 1.7 | 5.2 | 0.00 | 0.00 | 0.00 | 52 | 1010.9 |
| 20260506024022 | 72 | 148 | 1.7 | 7.8 | 0.00 | 0.00 | 0.00 | 51 | 1010.8 |
| 20260506023001 | 72 | 150 | 1.7 | 6.1 | 0.00 | 0.00 | 0.00 | 50 | 1010.8 |
| 20260506022001 | 72 | 149 | 1.7 | 6.1 | 0.00 | 0.00 | 0.00 | 49 | 1010.9 |
| 20260506021001 | 73 | 152 | 0.9 | 6.1 | 0.00 | 0.00 | 0.00 | 48 | 1011.0 |
| 20260506020024 | 73 | 163 | 0.9 | 5.2 | 0.00 | 0.00 | 0.00 | 46 | 1011.0 |
| 20260506015023 | 74 | 156 | 0.9 | 6.1 | 0.00 | 0.00 | 0.00 | 45 | 1010.8 |
| 20260506014023 | 74 | 153 | 1.7 | 4.3 | 0.00 | 0.00 | 0.00 | 45 | 1010.8 |
| 20260506013023 | 74 | 157 | 1.7 | 7.8 | 0.00 | 0.00 | 0.00 | 44 | 1010.6 |
| 20260506012022 | 74 | 153 | 1.7 | 7.0 | 0.00 | 0.00 | 0.00 | 44 | 1010.5 |
| 20260506011001 | 74 | 156 | 1.7 | 5.2 | 0.00 | 0.00 | 0.00 | 43 | 1010.4 |
| 20260506010001 | 75 | 162 | 1.7 | 6.1 | 0.00 | 0.00 | 0.00 | 42 | 1010.4 |
| 20260506005001 | 75 | 160 | 0.9 | 4.3 | 0.00 | 0.00 | 0.00 | 41 | 1010.3 |
| 20260506004002 | 76 | 156 | 0.9 | 4.3 | 0.00 | 0.00 | 0.00 | 41 | 1010.1 |
| 20260506003105 | 76 | 144 | 0.9 | 4.3 | 0.00 | 0.00 | 0.00 | 39 | 1010.1 |
| 20260506002002 | 77 | 159 | 1.7 | 7.0 | 0.00 | 0.00 | 0.00 | 38 | 1009.9 |
| 20260506001002 | 77 | 163 | 0.9 | 5.2 | 0.00 | 0.00 | 0.00 | 37 | 1009.8 |
| 20260506000002 | 78 | 162 | 1.7 | 6.1 | 0.00 | 0.00 | 0.00 | 36 | 1009.8 |
| 20260505235044 | 78 | 159 | 1.7 | 5.2 | 0.00 | 0.00 | 0.00 | 35 | 1009.7 |
| 20260505234023 | 79 | 165 | 1.7 | 10.4 | 0.00 | 0.00 | 0.00 | 35 | 1009.6 |
| 20260505233002 | 79 | 160 | 3.5 | 9.6 | 0.00 | 0.00 | 0.00 | 34 | 1009.7 |
| 20260505232044 | 80 | 163 | 2.6 | 10.4 | 0.00 | 0.00 | 0.00 | 34 | 1009.7 |
| 20260505231001 | 80 | 159 | 1.7 | 7.8 | 0.00 | 0.00 | 0.00 | 35 | 1009.6 |
| 20260505230002 | 80 | 167 | 2.6 | 7.8 | 0.00 | 0.00 | 0.00 | 34 | 1009.7 |
| 20260505225001 | 80 | 172 | 1.7 | 7.0 | 0.00 | 0.00 | 0.00 | 34 | 1009.6 |
| 20260505224002 | 81 | 158 | 2.6 | 7.8 | 0.00 | 0.00 | 0.00 | 34 | 1009.6 |
| 20260505223023 | 81 | 158 | 2.6 | 11.3 | 0.00 | 0.00 | 0.00 | 33 | 1009.6 |
| 20260505222002 | 81 | 154 | 2.6 | 10.4 | 0.00 | 0.00 | 0.00 | 33 | 1009.7 |
| 20260505221024 | 81 | 169 | 3.5 | 10.4 | 0.00 | 0.00 | 0.00 | 32 | 1009.7 |
| 20260505220023 | 81 | 161 | 3.5 | 10.4 | 0.00 | 0.00 | 0.00 | 32 | 1009.6 |
| 20260505215023 | 82 | 174 | 3.5 | 13.0 | 0.00 | 0.00 | 0.00 | 32 | 1009.6 |
| 20260505214002 | 82 | 160 | 4.3 | 14.8 | 0.00 | 0.00 | 0.00 | 31 | 1009.5 |
| 20260505213044 | 82 | 162 | 3.5 | 13.0 | 0.00 | 0.00 | 0.00 | 32 | 1009.4 |
| 20260505212002 | 82 | 169 | 3.5 | 13.0 | 0.00 | 0.00 | 0.00 | 33 | 1009.3 |
| 20260505211023 | 82 | 157 | 3.5 | 12.2 | 0.00 | 0.00 | 0.00 | 34 | 1009.5 |
| 20260505210002 | 83 | 162 | 3.5 | 11.3 | 0.00 | 0.00 | 0.00 | 32 | 1009.5 |
| 20260505205023 | 83 | 173 | 2.6 | 11.3 | 0.00 | 0.00 | 0.00 | 32 | 1009.5 |
| 20260505204002 | 83 | 157 | 3.5 | 8.7 | 0.00 | 0.00 | 0.00 | 33 | 1009.4 |
| 20260505203002 | 83 | 159 | 2.6 | 9.6 | 0.00 | 0.00 | 0.00 | 33 | 1009.4 |
| 20260505202002 | 84 | 154 | 3.5 | 12.2 | 0.00 | 0.00 | 0.00 | 33 | 1009.4 |
| 20260505201002 | 84 | 164 | 3.5 | 16.5 | 0.00 | 0.00 | 0.00 | 33 | 1009.5 |
| 20260505200002 | 85 | 164 | 3.5 | 12.2 | 0.00 | 0.00 | 0.00 | 31 | 1009.3 |
| 20260505195002 | 85 | 159 | 3.5 | 14.8 | 0.00 | 0.00 | 0.00 | 32 | 1009.5 |
| 20260505194024 | 85 | 176 | 4.3 | 13.0 | 0.00 | 0.00 | 0.00 | 31 | 1009.7 |
| 20260505193105 | 85 | 166 | 5.2 | 14.8 | 0.00 | 0.00 | 0.00 | 31 | 1009.8 |
| 20260505192002 | 85 | 174 | 2.6 | 11.3 | 0.00 | 0.00 | 0.00 | 34 | 1009.9 |
| 20260505191002 | 85 | 172 | 4.3 | 10.4 | 0.00 | 0.00 | 0.00 | 30 | 1010.2 |
| 20260505190023 | 86 | 165 | 3.5 | 11.3 | 0.00 | 0.00 | 0.00 | 30 | 1010.2 |
| 20260505185023 | 86 | 169 | 2.6 | 8.7 | 0.00 | 0.00 | 0.00 | 33 | 1010.3 |
| 20260505184045 | 86 | 167 | 3.5 | 10.4 | 0.00 | 0.00 | 0.00 | 34 | 1010.5 |
| 20260505183105 | 85 | 161 | 4.3 | 13.9 | 0.00 | 0.00 | 0.00 | 33 | 1010.6 |
| 20260505182024 | 85 | 159 | 3.5 | 9.6 | 0.00 | 0.00 | 0.00 | 32 | 1010.6 |
| 20260505181002 | 86 | 159 | 3.5 | 8.7 | 0.00 | 0.00 | 0.00 | 33 | 1010.8 |
| 20260505180023 | 85 | 164 | 2.6 | 7.8 | 0.00 | 0.00 | 0.00 | 34 | 1010.9 |
| 20260505175002 | 85 | 147 | 3.5 | 9.6 | 0.00 | 0.00 | 0.00 | 33 | 1011.1 |
| 20260505174002 | 85 | 169 | 2.6 | 10.4 | 0.00 | 0.00 | 0.00 | 34 | 1011.0 |
| 20260505173023 | 85 | 161 | 3.5 | 13.0 | 0.00 | 0.00 | 0.00 | 35 | 1011.1 |
| 20260505172002 | 84 | 154 | 3.5 | 9.6 | 0.00 | 0.00 | 0.00 | 37 | 1011.1 |
| 20260505171023 | 84 | 167 | 2.6 | 8.7 | 0.00 | 0.00 | 0.00 | 36 | 1011.2 |
| 20260505170002 | 84 | 167 | 2.6 | 8.7 | 0.00 | 0.00 | 0.00 | 39 | 1011.3 |
| 20260505165023 | 83 | 178 | 2.6 | 8.7 | 0.00 | 0.00 | 0.00 | 36 | 1011.6 |
| 20260505164002 | 83 | 158 | 2.6 | 7.8 | 0.00 | 0.00 | 0.00 | 39 | 1011.7 |
| 20260505163002 | 83 | 156 | 2.6 | 9.6 | 0.00 | 0.00 | 0.00 | 39 | 1011.9 |
| 20260505162023 | 83 | 151 | 1.7 | 8.7 | 0.00 | 0.00 | 0.00 | 38 | 1012.0 |
| 20260505161002 | 83 | 174 | 1.7 | 7.0 | 0.00 | 0.00 | 0.00 | 39 | 1012.2 |
| 20260505153023 | 80 | 161 | 1.7 | 7.0 | 0.00 | 0.00 | 0.00 | 43 | 1012.5 |
| 20260505152023 | 80 | 154 | 2.6 | 6.1 | 0.00 | 0.00 | 0.00 | 45 | 1012.4 |
| 20260505151002 | 80 | 162 | 1.7 | 6.1 | 0.00 | 0.00 | 0.00 | 45 | 1012.4 |